Time;durP1;ratioP1;P1;durP2;ratioP2;P2;SDS_P1;SDS_P2;PMS_P1;PMS_P2;Temp;Humidity;BMP_temperature;BMP_pressure;BME280_temperature;BME280_humidity;BME280_pressure;Samples;Min_cycle;Max_cycle;Signal;HPM_P1;HPM_P2
2021/08/31 00:00:00;;;;;;;31.00;10.82;;;;;;;19.14;78.74;99892.45;1785023;80;21462;-54
2021/08/31 00:02:26;;;;;;;30.80;9.88;;;;;;;19.15;78.45;99890.66;1784817;80;20943;-54
2021/08/31 00:04:53;;;;;;;23.95;10.08;;;;;;;19.23;78.26;99892.34;1785043;80;21690;-54
2021/08/31 00:07:21;;;;;;;45.95;10.65;;;;;;;19.30;77.79;99883.59;1785134;80;20939;-55
2021/08/31 00:09:47;;;;;;;47.70;10.85;;;;;;;19.36;77.89;99888.46;1785024;80;20983;-55
2021/08/31 00:12:14;;;;;;;40.35;11.30;;;;;;;19.39;77.79;99887.78;1785094;80;20935;-55
2021/08/31 00:14:41;;;;;;;74.30;13.50;;;;;;;19.43;77.64;99888.89;1784978;80;20904;-55
2021/08/31 00:17:09;;;;;;;82.27;16.07;;;;;;;19.45;77.70;99883.06;1785158;80;21497;-55
2021/08/31 00:19:36;;;;;;;50.80;11.05;;;;;;;19.45;77.59;99885.23;1784779;80;21877;-55
2021/08/31 00:22:04;;;;;;;49.58;11.08;;;;;;;19.40;77.77;99883.38;1784677;80;20959;-55
2021/08/31 00:24:30;;;;;;;41.08;10.08;;;;;;;19.37;78.31;99883.59;1784883;80;20986;-55
2021/08/31 00:26:57;;;;;;;55.73;11.40;;;;;;;19.34;78.81;99879.85;1784958;80;20916;-55
2021/08/31 00:29:25;;;;;;;63.98;12.70;;;;;;;19.29;79.27;99880.59;1784969;80;21490;-55
2021/08/31 00:31:51;;;;;;;46.98;11.00;;;;;;;19.22;79.11;99878.86;1756154;80;21512;-55
2021/08/31 00:34:18;;;;;;;42.40;11.25;;;;;;;19.17;79.30;99876.52;1785147;80;20936;-55
2021/08/31 00:36:44;;;;;;;60.50;11.33;;;;;;;19.13;79.84;99874.17;1784951;80;20978;-55
2021/08/31 00:39:11;;;;;;;43.90;12.10;;;;;;;19.04;79.87;99871.66;1784914;79;20939;-54
2021/08/31 00:41:38;;;;;;;41.23;11.50;;;;;;;18.98;79.77;99866.78;1785131;80;21529;-55
2021/08/31 00:44:04;;;;;;;45.05;10.93;;;;;;;18.91;80.49;99865.86;1785065;80;21969;-55
2021/08/31 00:46:31;;;;;;;54.45;11.93;;;;;;;18.88;80.53;99873.92;1784877;80;21532;-55
2021/08/31 00:48:57;;;;;;;49.45;10.85;;;;;;;18.82;80.95;99870.38;1785141;80;21483;-55
2021/08/31 00:51:24;;;;;;;38.53;11.10;;;;;;;18.78;81.66;99867.55;1756192;80;20975;-55
2021/08/31 00:53:52;;;;;;;39.10;11.43;;;;;;;18.75;82.00;99872.99;1756162;80;21385;-55
2021/08/31 00:56:18;;;;;;;42.15;11.28;;;;;;;18.74;82.99;99866.06;1784766;80;21676;-55
2021/08/31 00:58:46;;;;;;;108.47;14.40;;;;;;;18.76;83.60;99879.91;1781984;80;20919;-55
2021/08/31 01:01:12;;;;;;;53.25;11.53;;;;;;;18.77;83.86;99884.22;1779185;80;21003;-55
2021/08/31 01:03:42;;;;;;;61.73;13.22;;;;;;;18.80;85.07;99894.06;1778976;80;20924;-54
2021/08/31 01:06:09;;;;;;;85.50;14.07;;;;;;;18.86;86.08;99890.68;1779142;80;21023;-54
2021/08/31 01:08:36;;;;;;;65.57;12.98;;;;;;;18.93;88.07;99895.45;1779200;80;21126;-55
2021/08/31 01:11:02;;;;;;;153.12;17.82;;;;;;;18.95;88.79;99896.20;1742038;82;21011;-55
2021/08/31 01:13:36;;;;;;;143.70;19.90;;;;;;;18.99;88.81;99893.41;1697731;83;21004;-55
2021/08/31 01:16:04;;;;;;;78.37;16.10;;;;;;;19.05;88.98;99900.88;1779135;80;20916;-55
2021/08/31 01:18:31;;;;;;;75.47;15.32;;;;;;;19.11;89.38;99890.03;1779511;80;20880;-55
2021/08/31 01:20:59;;;;;;;72.27;13.93;;;;;;;19.15;89.25;99890.20;1742240;82;21482;-55
2021/08/31 01:23:27;;;;;;;48.87;13.10;;;;;;;19.20;89.27;99890.74;1715671;83;20929;-55
2021/08/31 01:25:54;;;;;;;43.28;12.70;;;;;;;19.25;89.36;99889.15;1779165;80;20995;-55
2021/08/31 01:28:24;;;;;;;38.90;12.60;;;;;;;19.30;89.86;99891.00;1779082;80;20943;-55
2021/08/31 01:30:52;;;;;;;35.33;12.28;;;;;;;19.34;90.24;99889.86;1741750;82;21517;-55
2021/08/31 01:33:21;;;;;;;43.73;10.88;;;;;;;19.37;90.38;99890.15;1715673;83;21087;-55
2021/08/31 01:35:48;;;;;;;41.10;11.15;;;;;;;19.40;90.66;99895.19;1779063;80;20991;-55
2021/08/31 01:38:14;;;;;;;33.38;11.50;;;;;;;19.41;90.86;99893.39;1779143;80;21037;-55
2021/08/31 01:40:41;;;;;;;39.18;12.47;;;;;;;19.43;91.03;99894.13;1742197;82;20960;-55
2021/08/31 01:43:08;;;;;;;38.53;11.97;;;;;;;19.45;91.45;99898.81;1715907;83;21045;-55
2021/08/31 01:45:46;;;;;;;35.40;12.75;;;;;;;19.46;91.51;99890.85;1779272;80;21702;-55
2021/08/31 01:48:13;;;;;;;35.30;11.68;;;;;;;19.50;91.56;99894.13;1742202;82;20983;-55
2021/08/31 01:50:40;;;;;;;29.32;11.95;;;;;;;19.51;91.67;99893.19;1715827;83;20949;-55
2021/08/31 01:53:07;;;;;;;46.58;12.90;;;;;;;19.50;91.87;99890.20;1779203;80;21015;-55
2021/08/31 01:55:33;;;;;;;52.53;12.55;;;;;;;19.48;92.54;99891.59;1779285;80;21002;-55
2021/08/31 01:58:01;;;;;;;83.52;15.83;;;;;;;19.43;92.85;99892.82;1779135;80;21774;-55
2021/08/31 02:00:27;;;;;;;50.35;12.58;;;;;;;19.39;93.55;99897.45;1784787;80;20943;-55
2021/08/31 02:02:54;;;;;;;96.82;16.30;;;;;;;19.35;94.37;99898.59;1756513;80;20944;-55
2021/08/31 02:05:20;;;;;;;98.87;16.57;;;;;;;19.32;94.82;99895.68;1785032;80;20966;-55
2021/08/31 02:07:48;;;;;;;77.65;15.98;;;;;;;19.33;95.47;99899.16;1785145;80;20967;-55
2021/08/31 02:10:15;;;;;;;38.85;12.30;;;;;;;19.33;96.05;99895.22;1784653;80;21090;-55
2021/08/31 02:12:42;;;;;;;60.00;14.35;;;;;;;19.32;96.60;99894.37;1785141;80;21495;-55
2021/08/31 02:15:10;;;;;;;34.83;11.88;;;;;;;19.30;97.13;99889.69;1785110;80;20972;-55
2021/08/31 02:17:37;;;;;;;37.05;12.53;;;;;;;19.30;97.58;99894.94;1784926;80;21168;-55
2021/08/31 02:20:05;;;;;;;47.67;12.60;;;;;;;19.30;98.00;99904.13;1784694;80;20924;-55
2021/08/31 02:22:32;;;;;;;35.23;11.93;;;;;;;19.29;98.38;99907.69;1784700;80;21113;-55
2021/08/31 02:24:59;;;;;;;17.52;9.48;;;;;;;19.29;99.14;99907.69;1784731;80;20963;-55
2021/08/31 02:27:26;;;;;;;30.27;9.63;;;;;;;19.33;100.00;99907.03;1756385;80;20951;-54
2021/08/31 02:29:53;;;;;;;23.00;9.95;;;;;;;19.43;100.00;99904.63;1785064;80;21441;-55
2021/08/31 02:32:20;;;;;;;15.68;9.63;;;;;;;19.54;100.00;99910.05;1785121;80;20990;-55
2021/08/31 02:34:47;;;;;;;16.97;9.65;;;;;;;19.60;100.00;99908.33;1785280;80;21806;-55
2021/08/31 02:37:14;;;;;;;20.32;10.82;;;;;;;19.69;100.00;99900.33;1784995;80;21539;-55
2021/08/31 02:39:40;;;;;;;15.10;10.53;;;;;;;19.78;100.00;99904.14;1785133;79;21497;-56
2021/08/31 02:42:07;;;;;;;16.30;10.00;;;;;;;19.82;100.00;99909.06;1784821;80;20959;-55
2021/08/31 02:44:34;;;;;;;26.00;11.28;;;;;;;19.86;100.00;99902.33;1785103;80;21568;-55
2021/08/31 02:47:01;;;;;;;21.57;12.23;;;;;;;19.89;100.00;99908.19;1785038;80;21120;-55
2021/08/31 02:49:28;;;;;;;17.87;10.32;;;;;;;19.90;100.00;99907.25;1784832;80;21002;-55
2021/08/31 02:51:56;;;;;;;24.32;10.88;;;;;;;19.92;100.00;99916.38;1784974;80;20920;-55
2021/08/31 02:54:22;;;;;;;26.17;10.32;;;;;;;19.93;100.00;99918.06;1784841;80;20924;-55
2021/08/31 02:56:49;;;;;;;16.95;9.78;;;;;;;19.91;100.00;99915.53;1785035;80;20967;-55
2021/08/31 02:59:17;;;;;;;16.82;9.63;;;;;;;19.92;100.00;99921.63;1785059;80;22215;-55
2021/08/31 03:02:04;;;;;;;16.75;9.35;;;;;;;19.92;100.00;99917.20;1785094;80;21015;-55
2021/08/31 03:04:36;;;;;;;17.95;10.55;;;;;;;19.92;100.00;99921.63;1785016;80;21038;-55
2021/08/31 03:07:07;;;;;;;17.92;10.08;;;;;;;19.90;100.00;99926.12;1784910;80;20943;-55
2021/08/31 03:09:34;;;;;;;23.60;9.60;;;;;;;19.87;100.00;99931.09;1784936;80;20989;-55
2021/08/31 03:12:02;;;;;;;10.13;8.58;;;;;;;19.88;100.00;99931.95;1784726;80;21084;-55
2021/08/31 03:14:29;;;;;;;19.30;9.03;;;;;;;19.86;100.00;99923.33;1785125;80;21599;-55
2021/08/31 03:16:58;;;;;;;17.67;9.53;;;;;;;19.85;99.84;99930.84;1784905;80;21477;-55
2021/08/31 03:19:25;;;;;;;17.65;9.33;;;;;;;19.82;99.79;99927.93;1784713;80;20956;-55
2021/08/31 03:21:57;;;;;;;16.02;8.63;;;;;;;19.79;99.79;99939.46;1784819;80;21650;-55
2021/08/31 03:24:23;;;;;;;18.77;9.78;;;;;;;19.75;99.82;99930.59;1785061;80;21733;-55
2021/08/31 03:26:50;;;;;;;17.02;9.28;;;;;;;19.76;99.77;99932.28;1785047;80;20983;-55
2021/08/31 03:29:16;;;;;;;14.63;9.33;;;;;;;19.77;99.69;99945.28;1785230;80;21057;-55
2021/08/31 03:31:43;;;;;;;23.00;9.55;;;;;;;19.79;99.59;99949.14;1785046;80;20995;-55
2021/08/31 03:34:10;;;;;;;22.37;9.53;;;;;;;19.78;99.52;99947.45;1756513;80;20911;-55
2021/08/31 03:36:38;;;;;;;17.25;8.78;;;;;;;19.79;99.13;99947.83;1785108;80;21066;-55
2021/08/31 03:39:05;;;;;;;13.85;8.75;;;;;;;19.80;99.00;99951.65;1784917;80;20932;-55
2021/08/31 03:41:32;;;;;;;16.23;9.30;;;;;;;19.82;98.79;99951.07;1784992;80;21003;-55
2021/08/31 03:43:59;;;;;;;16.97;8.88;;;;;;;19.85;98.53;99955.30;1785045;80;22138;-55
2021/08/31 03:46:25;;;;;;;16.37;8.85;;;;;;;19.86;98.39;99959.60;1785073;80;22165;-55
2021/08/31 03:48:52;;;;;;;14.90;8.70;;;;;;;19.89;97.97;99956.77;1785304;80;21103;-55
2021/08/31 03:51:18;;;;;;;19.00;8.63;;;;;;;19.90;97.15;99958.45;1784630;80;20994;-55
2021/08/31 03:53:45;;;;;;;19.55;8.55;;;;;;;19.94;96.92;99961.77;1785048;80;21515;-55
2021/08/31 03:56:12;;;;;;;16.10;8.13;;;;;;;19.95;96.72;99960.82;1784951;80;20940;-55
2021/08/31 03:58:40;;;;;;;12.13;8.38;;;;;;;19.96;96.39;99958.56;1784915;80;21440;-56
2021/08/31 04:01:07;;;;;;;12.28;8.48;;;;;;;19.97;96.13;99955.48;1784824;80;22036;-55
2021/08/31 04:03:33;;;;;;;14.58;8.73;;;;;;;19.97;96.26;99956.30;1784941;80;21030;-55
2021/08/31 04:06:00;;;;;;;25.62;8.90;;;;;;;19.96;96.05;99961.19;1784895;80;20983;-55
2021/08/31 04:08:26;;;;;;;14.63;9.23;;;;;;;19.96;96.15;99955.94;1785080;80;20903;-55
2021/08/31 04:10:53;;;;;;;12.28;8.05;;;;;;;20.01;96.18;99959.58;1785251;80;20955;-55
2021/08/31 04:13:20;;;;;;;12.30;8.40;;;;;;;20.04;96.34;99962.83;1784884;80;21785;-55
2021/08/31 04:15:48;;;;;;;21.80;10.60;;;;;;;20.09;96.40;99961.22;1784844;80;20919;-55
2021/08/31 04:18:17;;;;;;;26.27;8.88;;;;;;;20.15;96.63;99966.06;1784935;80;21601;-56
2021/08/31 04:20:43;;;;;;;15.00;10.72;;;;;;;20.22;96.65;99971.75;1784925;80;20908;-55
2021/08/31 04:23:10;;;;;;;21.40;11.05;;;;;;;20.27;96.41;99968.83;1785022;80;21029;-55
2021/08/31 04:25:37;;;;;;;16.23;10.95;;;;;;;20.31;96.14;99971.13;1784993;80;21096;-55
2021/08/31 04:28:04;;;;;;;16.85;11.20;;;;;;;20.36;95.71;99959.86;1784842;80;21030;-55
2021/08/31 04:30:31;;;;;;;17.57;11.15;;;;;;;20.44;95.36;99960.63;1784959;80;21039;-55
2021/08/31 04:32:58;;;;;;;24.55;10.95;;;;;;;20.53;95.00;99960.48;1756269;80;20998;-55
2021/08/31 04:35:25;;;;;;;15.45;10.93;;;;;;;20.66;94.88;99969.23;1785175;80;21007;-55
2021/08/31 04:37:52;;;;;;;20.85;13.68;;;;;;;20.79;93.95;99966.62;1785082;80;21141;-56
2021/08/31 04:40:19;;;;;;;24.52;15.35;;;;;;;20.85;92.96;99975.89;1784778;80;20995;-55
2021/08/31 04:42:46;;;;;;;21.97;15.03;;;;;;;20.87;91.94;99963.47;1784777;79;20943;-55
2021/08/31 04:45:13;;;;;;;21.68;16.52;;;;;;;20.84;91.74;99961.05;1784811;80;21017;-55
2021/08/31 04:47:40;;;;;;;20.02;15.90;;;;;;;20.83;91.90;99962.46;1784786;80;20986;-55
2021/08/31 04:50:08;;;;;;;21.12;16.02;;;;;;;20.83;91.99;99967.72;1784782;80;21032;-55
2021/08/31 04:52:34;;;;;;;28.40;18.05;;;;;;;20.87;91.88;99966.56;1784740;80;20951;-55
2021/08/31 04:55:01;;;;;;;27.95;18.20;;;;;;;20.88;91.00;99963.83;1784935;80;20983;-55
2021/08/31 04:57:27;;;;;;;26.12;17.75;;;;;;;20.91;90.90;99985.11;1756183;80;20935;-55
2021/08/31 04:59:54;;;;;;;27.65;17.87;;;;;;;20.92;90.75;99963.98;1782679;80;21002;-55
2021/08/31 05:02:21;;;;;;;23.73;17.35;;;;;;;20.96;91.01;99972.02;1713027;82;21092;-55
2021/08/31 05:04:47;;;;;;;27.15;17.80;;;;;;;21.00;90.75;99978.37;1716052;83;20992;-55
2021/08/31 05:07:14;;;;;;;22.45;18.15;;;;;;;21.05;90.92;99973.62;1779245;80;21584;-55
2021/08/31 05:09:41;;;;;;;29.20;19.27;;;;;;;21.14;90.73;99974.31;1779566;80;20991;-55
2021/08/31 05:12:08;;;;;;;27.37;19.60;;;;;;;21.18;89.88;99985.45;1742231;82;21584;-56
2021/08/31 05:14:35;;;;;;;31.05;21.77;;;;;;;21.19;89.78;99981.86;1696404;83;21195;-55
2021/08/31 05:17:03;;;;;;;28.67;19.65;;;;;;;21.18;89.36;99986.30;1779040;80;20959;-55
2021/08/31 05:19:29;;;;;;;29.05;21.33;;;;;;;21.21;89.55;99983.45;1779589;80;20916;-55
2021/08/31 05:21:57;;;;;;;30.30;21.42;;;;;;;21.25;89.55;99987.55;1779197;80;21006;-55
2021/08/31 05:24:24;;;;;;;39.92;22.05;;;;;;;21.28;89.39;99985.64;1779245;80;20998;-55
2021/08/31 05:26:51;;;;;;;38.67;25.75;;;;;;;21.29;89.80;99992.58;1779283;80;21153;-55
2021/08/31 05:29:17;;;;;;;53.63;29.23;;;;;;;21.31;90.37;99984.09;1779168;80;20924;-55
2021/08/31 05:31:45;;;;;;;51.95;31.95;;;;;;;21.24;89.87;99988.49;1779324;79;20966;-55
2021/08/31 05:34:11;;;;;;;58.33;30.10;;;;;;;21.04;90.39;99994.31;1779386;80;22034;-55
2021/08/31 05:36:38;;;;;;;58.10;30.88;;;;;;;20.88;90.87;99999.34;1779334;80;21572;-55
2021/08/31 06:45:14;;;;;;;49.35;28.40;;;;;;;19.56;100.00;100063.02;1785572;80;22718;-53
2021/08/31 06:47:43;;;;;;;52.45;28.12;;;;;;;19.53;99.46;100077.66;1782410;80;20967;-56
2021/08/31 06:50:15;;;;;;;57.53;29.42;;;;;;;19.53;99.11;100078.48;1782298;80;21142;-56
2021/08/31 06:52:40;;;;;;;48.23;27.17;;;;;;;19.46;98.82;100080.29;1781827;80;20979;-55
2021/08/31 06:55:09;;;;;;;52.50;29.10;;;;;;;19.38;98.68;100086.00;1782354;79;20974;-53
2021/08/31 06:57:36;;;;;;;47.50;25.72;;;;;;;19.34;98.82;100084.51;1782500;80;20999;-53
2021/08/31 07:00:07;;;;;;;44.50;25.75;;;;;;;19.31;98.98;100092.54;1782630;80;21109;-55
2021/08/31 07:02:33;;;;;;;51.23;26.75;;;;;;;19.33;99.37;100094.63;1755869;80;21869;-54
2021/08/31 07:05:00;;;;;;;42.55;24.98;;;;;;;19.38;99.54;100092.08;1782314;80;21556;-56
2021/08/31 07:07:26;;;;;;;38.40;23.47;;;;;;;19.47;99.13;100088.05;1782516;80;21484;-55
2021/08/31 07:09:53;;;;;;;43.20;24.10;;;;;;;19.56;98.94;100097.14;1755863;80;21504;-53
2021/08/31 07:12:21;;;;;;;36.58;22.17;;;;;;;19.67;98.83;100097.79;1782417;80;20928;-54
2021/08/31 07:14:48;;;;;;;41.85;22.25;;;;;;;19.80;98.15;100101.80;1782231;80;21900;-57
2021/08/31 07:17:15;;;;;;;35.25;20.75;;;;;;;19.93;97.74;100096.16;1782372;80;20892;-55
2021/08/31 07:19:43;;;;;;;34.85;21.55;;;;;;;20.06;97.06;100097.53;1782355;80;20971;-54
2021/08/31 07:22:11;;;;;;;37.60;22.02;;;;;;;20.15;95.68;100103.16;1782377;80;20932;-55
2021/08/31 07:24:37;;;;;;;31.35;20.10;;;;;;;20.19;94.93;100102.84;1782291;80;20939;-57
2021/08/31 07:27:04;;;;;;;31.45;20.80;;;;;;;20.26;94.29;100100.67;1782240;80;21185;-55
2021/08/31 07:29:30;;;;;;;27.30;19.23;;;;;;;20.30;93.16;100105.27;1782235;80;20955;-56
2021/08/31 07:31:57;;;;;;;34.03;21.35;;;;;;;20.35;92.96;100104.03;1782437;80;21014;-58
2021/08/31 07:34:23;;;;;;;32.33;21.60;;;;;;;20.44;92.53;100110.45;1745076;80;20956;-57
2021/08/31 07:36:50;;;;;;;32.78;21.73;;;;;;;20.51;91.54;100112.20;1737203;82;20907;-57
2021/08/31 07:39:16;;;;;;;34.23;22.95;;;;;;;20.55;90.79;100120.75;1736972;82;21223;-56
2021/08/31 07:41:43;;;;;;;35.33;22.35;;;;;;;20.50;89.30;100114.47;1736892;82;20994;-54
2021/08/31 07:44:10;;;;;;;36.08;22.67;;;;;;;20.46;89.28;100123.05;1735692;82;20963;-57
2021/08/31 07:46:37;;;;;;;37.08;22.45;;;;;;;20.43;89.34;100119.28;1733918;82;20971;-57
2021/08/31 07:49:03;;;;;;;33.40;22.05;;;;;;;20.44;89.15;100120.95;1734065;82;21054;-56
2021/08/31 07:51:31;;;;;;;35.13;22.20;;;;;;;20.41;89.18;100116.39;1734001;82;21469;-57
2021/08/31 07:53:57;;;;;;;35.70;22.65;;;;;;;20.37;89.60;100113.97;1734318;82;20990;-57
2021/08/31 07:56:24;;;;;;;38.05;23.83;;;;;;;20.37;89.56;100111.34;1734088;82;20990;-56
2021/08/31 07:58:51;;;;;;;40.05;23.30;;;;;;;20.37;89.53;100119.23;1733990;82;20903;-55
2021/08/31 08:01:17;;;;;;;35.50;23.57;;;;;;;20.32;89.81;100126.55;1733903;82;20962;-55
2021/08/31 08:03:45;;;;;;;35.35;22.02;;;;;;;20.26;89.77;100120.38;1734054;82;22142;-55
2021/08/31 08:06:11;;;;;;;31.77;21.75;;;;;;;20.25;89.91;100126.58;1708648;82;22116;-52
2021/08/31 08:08:38;;;;;;;31.27;21.25;;;;;;;20.26;89.88;100136.63;1708841;82;21482;-53
2021/08/31 08:11:04;;;;;;;28.52;20.05;;;;;;;20.23;89.78;100125.83;1734026;82;21504;-56
2021/08/31 08:13:30;;;;;;;26.65;18.37;;;;;;;20.25;89.68;100134.45;1734146;82;21022;-56
2021/08/31 08:15:57;;;;;;;29.65;18.27;;;;;;;20.25;89.55;100139.71;1733932;82;21260;-54
2021/08/31 08:18:23;;;;;;;23.77;19.07;;;;;;;20.26;89.57;100140.08;1734196;82;20955;-54
2021/08/31 08:20:50;;;;;;;30.65;18.85;;;;;;;20.29;89.21;100139.05;1734077;82;20955;-55
2021/08/31 08:23:17;;;;;;;29.05;19.45;;;;;;;20.28;89.58;100138.20;1734021;82;20986;-54
2021/08/31 08:25:43;;;;;;;30.75;18.17;;;;;;;20.35;89.30;100127.69;1734011;82;21033;-54
2021/08/31 08:28:10;;;;;;;31.68;16.67;;;;;;;20.46;88.66;100132.25;1733910;82;21093;-55
2021/08/31 08:30:36;;;;;;;25.10;17.35;;;;;;;20.58;88.04;100137.62;1734139;82;20975;-54
2021/08/31 08:33:02;;;;;;;23.52;16.55;;;;;;;20.71;87.01;100134.55;1733739;82;21532;-54
2021/08/31 08:35:29;;;;;;;21.57;15.15;;;;;;;20.78;85.64;100141.10;1734037;82;21488;-56
2021/08/31 08:37:57;;;;;;;26.27;16.52;;;;;;;20.86;85.83;100132.74;1734001;82;21086;-56
2021/08/31 08:40:24;;;;;;;28.65;15.75;;;;;;;20.85;84.51;100141.58;1734209;82;21160;-56
2021/08/31 08:42:53;;;;;;;24.02;14.30;;;;;;;20.87;84.50;100138.38;1733859;82;21607;-55
2021/08/31 08:45:20;;;;;;;25.10;14.83;;;;;;;20.91;84.84;100137.22;1733950;82;21614;-56
2021/08/31 08:47:47;;;;;;;35.08;14.98;;;;;;;20.98;83.75;100139.42;1733791;82;21040;-55
2021/08/31 08:50:13;;;;;;;21.30;14.20;;;;;;;21.04;83.28;100142.95;1733957;82;21089;-57
2021/08/31 08:52:40;;;;;;;18.23;15.38;;;;;;;21.16;83.12;100142.14;1733927;82;21120;-55
2021/08/31 08:55:10;;;;;;;20.10;14.68;;;;;;;21.17;82.46;100137.70;1733881;82;20967;-56
2021/08/31 08:57:37;;;;;;;20.15;15.60;;;;;;;21.23;83.33;100144.70;1733696;82;21038;-57
2021/08/31 09:00:06;;;;;;;26.37;14.90;;;;;;;21.36;82.61;100153.09;1734142;82;20986;-57
2021/08/31 09:02:43;;;;;;;18.98;14.95;;;;;;;21.48;82.65;100146.97;1733827;82;21560;-57
2021/08/31 09:05:17;;;;;;;20.62;14.75;;;;;;;21.63;81.76;100142.91;1734351;82;21786;-58
2021/08/31 09:07:41;;;;;;;20.23;16.15;;;;;;;21.70;79.60;100156.50;1732574;82;20975;-57
2021/08/31 09:10:16;;;;;;;21.90;16.67;;;;;;;21.68;78.39;100146.09;1734079;82;21070;-55
2021/08/31 09:12:50;;;;;;;19.90;15.35;;;;;;;21.69;78.99;100150.41;1733776;82;21483;-54
2021/08/31 09:15:30;;;;;;;25.52;16.27;;;;;;;21.77;77.68;100138.84;1734067;82;21026;-54
2021/08/31 09:18:13;;;;;;;25.43;16.10;;;;;;;21.83;77.72;100148.11;1733816;82;21160;-54
2021/08/31 09:20:57;;;;;;;26.23;17.32;;;;;;;21.90;77.50;100146.72;1734081;82;21006;-54
2021/08/31 09:23:27;;;;;;;24.10;17.45;;;;;;;22.09;75.66;100151.50;1733903;82;20928;-57
2021/08/31 09:25:55;;;;;;;19.90;15.78;;;;;;;22.27;75.13;100147.19;1734142;82;21038;-55
2021/08/31 09:28:31;;;;;;;24.50;15.35;;;;;;;22.44;73.97;100147.26;1733806;82;21066;-54
2021/08/31 09:31:04;;;;;;;;;;;;;;;22.34;73.67;100151.53;1736814;82;21170;-56
2021/08/31 09:33:39;;;;;;;19.25;16.50;;;;;;;22.25;73.98;100157.86;1708408;82;20128;-56
2021/08/31 09:36:14;;;;;;;17.35;15.50;;;;;;;22.30;74.41;100160.14;1734466;82;20987;-57
2021/08/31 09:38:49;;;;;;;23.05;13.78;;;;;;;22.51;72.50;100155.14;1734121;82;20987;-54
2021/08/31 09:41:37;;;;;;;20.32;14.10;;;;;;;22.70;73.39;100164.80;1733848;82;20991;-56
2021/08/31 09:44:23;;;;;;;23.47;14.68;;;;;;;22.99;72.17;100157.81;1733751;82;22008;-54
2021/08/31 09:47:01;;;;;;;16.40;13.38;;;;;;;23.24;69.74;100164.22;1733839;82;21729;-54
2021/08/31 09:49:41;;;;;;;16.07;13.28;;;;;;;23.49;71.27;100168.95;1733840;82;21034;-55
2021/08/31 09:52:11;;;;;;;16.82;13.83;;;;;;;23.70;68.73;100162.96;1733160;82;20990;-56
2021/08/31 09:54:45;;;;;;;20.30;14.03;;;;;;;23.99;67.77;100168.20;1733861;82;20998;-53
2021/08/31 09:57:37;;;;;;;25.57;13.25;;;;;;;24.23;65.79;100170.23;1734102;82;21110;-57
2021/08/31 10:00:08;;;;;;;22.65;12.75;;;;;;;24.45;66.32;100166.34;1733726;82;20987;-55
2021/08/31 10:02:36;;;;;;;14.15;12.20;;;;;;;24.52;65.36;100174.12;1733285;82;21043;-54
2021/08/31 10:05:05;;;;;;;19.10;11.55;;;;;;;24.61;64.83;100176.00;1733723;82;21524;-56
2021/08/31 10:07:32;;;;;;;20.68;11.33;;;;;;;24.71;64.94;100181.88;1734026;82;20974;-55
2021/08/31 10:09:59;;;;;;;16.30;10.98;;;;;;;24.68;63.97;100179.84;1733953;82;21115;-56
2021/08/31 10:12:26;;;;;;;11.80;10.48;;;;;;;24.46;64.17;100182.56;1734077;82;21272;-54
2021/08/31 10:14:55;;;;;;;12.80;10.10;;;;;;;24.40;64.56;100182.58;1708552;82;20987;-57
2021/08/31 10:17:27;;;;;;;13.65;9.20;;;;;;;24.30;65.07;100189.09;1733641;82;20999;-54
2021/08/31 10:19:58;;;;;;;12.33;9.43;;;;;;;24.39;66.60;100187.51;1733824;82;20963;-57
2021/08/31 10:22:24;;;;;;;13.68;9.20;;;;;;;24.61;65.23;100193.20;1734000;82;21793;-54
2021/08/31 10:24:51;;;;;;;12.70;8.95;;;;;;;24.77;64.55;100185.36;1733595;82;20896;-55
2021/08/31 10:27:37;;;;;;;11.60;8.35;;;;;;;24.80;62.81;100189.92;1733866;82;21003;-55
2021/08/31 10:30:22;;;;;;;13.40;9.48;;;;;;;24.72;63.77;100197.61;1733840;82;21038;-55
2021/08/31 10:32:58;;;;;;;12.47;9.00;;;;;;;24.47;64.04;100198.79;1708550;82;20963;-57
2021/08/31 10:35:45;;;;;;;19.23;9.65;;;;;;;24.21;65.32;100207.03;1733007;82;21181;-57
2021/08/31 10:38:14;;;;;;;23.62;10.53;;;;;;;24.08;65.01;100205.84;1733784;82;20998;-56
2021/08/31 10:40:43;;;;;;;11.18;10.03;;;;;;;24.02;65.64;100216.42;1733881;82;20935;-54
2021/08/31 10:43:12;;;;;;;20.37;10.65;;;;;;;23.93;66.48;100209.20;1708414;82;20927;-55
2021/08/31 10:45:46;;;;;;;20.32;9.85;;;;;;;24.05;66.74;100210.88;1733811;82;20935;-56
2021/08/31 10:48:27;;;;;;;27.55;10.53;;;;;;;24.19;65.38;100216.39;1724597;82;21223;-57
2021/08/31 10:51:00;;;;;;;26.85;10.95;;;;;;;24.22;65.19;100217.96;1733808;82;20944;-55
2021/08/31 10:53:45;;;;;;;18.52;9.33;;;;;;;24.16;65.93;100214.49;1733690;82;21007;-56
2021/08/31 10:56:26;;;;;;;14.43;9.65;;;;;;;24.31;64.55;100217.21;1734037;82;20966;-54
2021/08/31 10:59:02;;;;;;;31.33;10.28;;;;;;;24.35;63.48;100218.64;1733955;82;21457;-53
2021/08/31 11:01:40;;;;;;;36.88;10.38;;;;;;;24.32;63.04;100213.60;1733734;82;21166;-56
2021/08/31 11:04:28;;;;;;;15.90;10.10;;;;;;;24.30;64.33;100214.21;1733920;82;20990;-55
2021/08/31 11:07:00;;;;;;;16.00;10.13;;;;;;;24.37;62.60;100225.14;1708575;82;20959;-53
2021/08/31 11:09:27;;;;;;;19.27;9.58;;;;;;;24.48;62.76;100230.89;1733706;82;20990;-55
2021/08/31 11:12:09;;;;;;;15.40;8.45;;;;;;;24.44;63.19;100232.93;1733967;82;21539;-55
2021/08/31 11:14:55;;;;;;;28.50;10.60;;;;;;;24.53;62.69;100226.06;1733739;82;21360;-54
2021/08/31 11:17:37;;;;;;;31.50;9.83;;;;;;;24.62;62.28;100233.23;1733688;82;20955;-55
2021/08/31 11:20:15;;;;;;;8.20;7.53;;;;;;;24.75;62.66;100226.98;1708554;82;20923;-55
2021/08/31 11:22:44;;;;;;;17.48;8.58;;;;;;;24.87;61.07;100231.75;1731050;82;20982;-56
2021/08/31 11:25:11;;;;;;;11.88;8.10;;;;;;;24.88;60.54;100228.14;1733176;82;21504;-54
2021/08/31 11:27:56;;;;;;;21.75;8.30;;;;;;;24.88;59.44;100232.11;1708662;82;21583;-57
2021/08/31 11:30:24;;;;;;;22.55;8.48;;;;;;;24.87;59.79;100230.42;1733978;82;21564;-54
2021/08/31 11:33:26;;;;;;;26.90;7.95;;;;;;;24.87;59.53;100218.52;1733956;82;20974;-54
2021/08/31 11:35:58;;;;;;;14.78;7.33;;;;;;;24.94;58.13;100233.77;1733807;82;21708;-55
2021/08/31 11:38:34;;;;;;;26.55;7.37;;;;;;;25.05;56.44;100235.99;1733828;82;20979;-55
2021/08/31 11:41:25;;;;;;;19.07;6.85;;;;;;;24.95;56.73;100239.89;1733930;82;21129;-58
2021/08/31 11:43:58;;;;;;;23.52;8.05;;;;;;;24.85;56.65;100236.33;1733783;82;20990;-54
2021/08/31 11:46:38;;;;;;;21.48;7.35;;;;;;;24.79;56.42;100238.99;1703730;83;20992;-56
2021/08/31 11:49:08;;;;;;;32.42;7.30;;;;;;;24.82;55.65;100230.33;1727646;83;20955;-54
2021/08/31 11:51:36;;;;;;;14.15;5.33;;;;;;;24.91;54.66;100226.55;1727653;83;20947;-56
2021/08/31 11:54:12;;;;;;;36.17;6.50;;;;;;;24.94;52.84;100231.13;1702006;83;21138;-55
2021/08/31 11:56:40;;;;;;;12.68;5.65;;;;;;;25.01;53.76;100227.48;1727690;83;20947;-55
2021/08/31 11:59:06;;;;;;;22.65;5.67;;;;;;;25.14;52.78;100224.66;1727640;83;21038;-56
2021/08/31 12:01:35;;;;;;;14.58;5.35;;;;;;;25.30;54.04;100227.31;1727466;83;20980;-54
2021/08/31 12:04:18;;;;;;;11.40;4.75;;;;;;;25.43;53.85;100229.30;1727784;83;21018;-53
2021/08/31 12:06:51;;;;;;;20.68;4.50;;;;;;;25.41;52.42;100227.27;1727513;83;21849;-55
2021/08/31 12:09:20;;;;;;;7.72;3.87;;;;;;;25.23;51.76;100231.81;1702802;83;21552;-56
2021/08/31 12:11:48;;;;;;;13.15;3.72;;;;;;;25.07;52.51;100224.79;1727566;83;20967;-56
2021/08/31 12:14:17;;;;;;;18.02;3.80;;;;;;;24.95;52.15;100223.53;1727365;83;20964;-54
2021/08/31 12:16:45;;;;;;;12.40;4.30;;;;;;;24.92;51.13;100215.00;1727516;83;20920;-55
2021/08/31 12:19:21;;;;;;;12.93;3.52;;;;;;;24.87;52.74;100216.70;1727699;83;21013;-55
2021/08/31 12:22:13;;;;;;;12.45;3.20;;;;;;;24.93;51.67;100202.13;1725413;83;21030;-55
2021/08/31 12:24:44;;;;;;;6.90;2.98;;;;;;;24.95;50.48;100221.36;1727918;83;20979;-57
2021/08/31 12:27:15;;;;;;;17.67;3.95;;;;;;;24.83;51.39;100215.28;1727553;82;20912;-57
2021/08/31 12:29:53;;;;;;;46.55;4.00;;;;;;;24.78;50.92;100213.03;1727822;83;22175;-54